.
WxDataArchive / Data Records for 2011-07-29
2011-07-28 July 2011 2011-07-30

Data Records for Friday, 29 July 2011

Time	Temp	Chill	HIndex	Humid	Dewpt	 Wind 	HiWind	WindDir	Rain 	Barom 
-----	----	-----	------	-----	-----	------	------	-------	-----	----- 
00:00	83.4	83.4	87.3	63	69.5	0	2	270	0.00	29.920 
00:05	83.6	83.6	87.4	62	69.2	0	3	270	0.00	29.920 
00:10	83.8	83.8	87.7	62	69.4	0	3	248	0.00	29.920 
00:15	83.8	83.8	87.7	62	69.4	0	2	315	0.00	29.913 
00:20	83.8	83.8	87.7	62	69.4	0	3	315	0.00	29.913 
00:25	83.8	83.8	87.7	62	69.4	1	3	315	0.00	29.913 
00:30	84.0	84.0	88.1	62	69.5	1	3	248	0.00	29.911 
00:35	84.0	84.0	88.1	62	69.5	0	2	68	0.00	29.911 
00:40	83.8	83.8	87.7	62	69.4	0	2	68	0.00	29.911 
00:45	83.8	83.8	87.7	62	69.4	0	2	68	0.00	29.901 
00:50	83.6	83.6	87.4	62	69.2	0	3	202	0.00	29.901 
00:55	83.6	83.6	87.6	63	69.6	0	2	202	0.00	29.901 
01:00	83.4	83.4	87.3	63	69.5	0	2	0	0.00	29.892 
01:05	83.4	83.4	87.3	63	69.5	1	2	248	0.00	29.892 
01:10	83.4	83.4	87.6	64	69.9	1	4	292	0.00	29.892 
01:15	83.2	83.2	87.2	64	69.7	0	2	292	0.00	29.887 
01:20	83.2	83.2	87.5	65	70.2	1	4	292	0.00	29.887 
01:25	83.2	83.2	87.5	65	70.2	1	3	270	0.00	29.887 
01:30	83.2	83.2	87.5	65	70.2	0	3	270	0.00	29.884 
01:35	83.2	83.2	87.5	65	70.2	0	3	338	0.00	29.884 
01:40	83.2	83.2	87.5	65	70.2	1	3	338	0.00	29.884 
01:45	83.2	83.2	87.7	66	70.6	1	3	292	0.00	29.886 
01:50	83.2	83.2	87.7	66	70.6	0	3	270	0.00	29.886 
01:55	83.0	83.0	87.3	66	70.4	0	3	270	0.00	29.886 
02:00	83.0	83.0	87.3	66	70.4	0	2	22	0.00	29.880 
02:05	82.8	82.8	87.2	67	70.7	1	3	292	0.00	29.880 
02:10	82.6	82.6	86.9	67	70.5	0	3	225	0.00	29.880 
02:15	82.4	82.4	86.7	68	70.8	0	2	225	0.00	29.879 
02:20	82.2	82.2	86.4	68	70.6	0	3	225	0.00	29.879 
02:25	82.2	82.2	86.6	69	71.0	1	4	248	0.00	29.879 
02:30	82.0	82.0	86.2	69	70.8	1	3	248	0.00	29.880 
02:35	82.0	82.0	86.2	69	70.8	0	2	292	0.00	29.880 
02:40	81.8	81.8	85.9	69	70.6	0	2	292	0.00	29.880 
02:45	81.6	81.6	85.7	70	70.8	0	2	292	0.00	29.881 
02:50	81.6	81.6	85.7	70	70.8	0	3	292	0.00	29.881 
02:55	81.6	81.6	85.9	71	71.3	0	3	292	0.00	29.881 
03:00	81.4	81.4	85.5	71	71.1	0	1	292	0.00	29.879 
03:05	81.4	81.4	85.5	71	71.1	0	2	248	0.00	29.879 
03:10	81.2	81.2	85.3	72	71.3	0	2	22	0.00	29.879 
03:15	81.2	81.2	85.3	72	71.3	0	2	22	0.00	29.876 
03:20	81.2	81.2	85.3	72	71.3	1	4	292	0.00	29.876 
03:25	81.1	81.1	85.2	72	71.2	0	1	292	0.00	29.876 
03:30	80.9	80.9	85.0	73	71.4	0	2	292	0.00	29.874 
03:35	80.9	80.9	85.0	73	71.4	0	1	292	0.00	29.874 
03:40	80.7	80.7	84.6	73	71.2	0	1	225	0.00	29.874 
03:45	80.7	80.7	84.6	73	71.2	0	2	225	0.00	29.877 
03:50	80.7	80.7	84.7	74	71.6	1	3	225	0.00	29.877 
03:55	80.7	80.7	84.7	74	71.6	0	1	225	0.00	29.877 
04:00	80.5	80.5	84.4	74	71.4	0	1	225	0.00	29.869 
04:05	80.5	80.5	84.4	74	71.4	0	2	225	0.00	29.869 
04:10	80.5	80.5	84.5	75	71.8	0	3	248	0.00	29.869 
04:15	80.5	80.5	84.5	75	71.8	1	3	248	0.00	29.858 
04:20	80.5	80.5	84.5	75	71.8	0	2	292	0.00	29.858 
04:25	80.3	80.3	84.1	75	71.6	0	1	292	0.00	29.858 
04:30	80.3	80.3	84.1	75	71.6	0	1	292	0.00	29.860 
04:35	80.1	80.1	83.9	76	71.8	0	3	292	0.00	29.860 
04:40	80.1	80.1	83.9	76	71.8	0	3	292	0.00	29.860 
04:45	80.1	80.1	83.9	76	71.8	0	3	292	0.00	29.857 
04:50	80.3	80.3	84.3	76	72.0	0	3	292	0.00	29.857 
04:55	80.3	80.3	84.3	76	72.0	0	3	292	0.00	29.857 
05:00	80.3	80.3	84.1	75	71.6	1	3	292	0.00	29.863 
05:05	80.5	80.5	84.5	75	71.8	0	3	292	0.00	29.863 
05:10	80.7	80.7	84.9	75	72.0	1	4	248	0.00	29.863 
05:15	80.9	80.9	85.1	74	71.8	2	5	292	0.00	29.894 
05:20	81.2	81.2	85.7	74	72.1	1	5	270	0.00	29.894 
05:25	81.4	81.4	85.9	73	71.9	2	5	270	0.00	29.894 
05:30	81.4	81.4	85.9	73	71.9	2	5	270	0.00	29.902 
05:35	81.4	81.4	85.9	73	71.9	2	5	270	0.00	29.902 
05:40	81.2	81.2	85.5	73	71.7	2	4	315	0.00	29.902 
05:45	81.2	81.2	85.7	74	72.1	2	5	270	0.00	29.922 
05:50	81.1	81.1	85.7	75	72.4	2	5	270	0.00	29.922 
05:55	80.9	80.9	85.7	77	73.0	1	4	292	0.01	29.922 
06:00	78.8	78.8	81.7	79	71.7	4	11	292	0.01	29.947 
06:05	77.0	77.0	78.5	81	70.7	2	9	292	0.00	29.947 
06:10	76.0	76.0	76.7	83	70.4	1	4	292	0.03	29.947 
06:15	74.9	74.9	74.9	85	70.1	1	4	292	0.04	29.948 
06:20	74.4	74.4	74.4	87	70.3	0	4	292	0.00	29.948 
06:25	73.9	73.9	73.9	88	70.1	1	3	292	0.01	29.948 
06:30	73.7	73.7	73.7	89	70.2	0	2	292	0.00	29.947 
06:35	73.5	73.5	73.5	90	70.4	0	1	292	0.00	29.947 
06:40	73.3	73.3	73.3	90	70.2	0	1	292	0.00	29.947 
06:45	73.2	73.2	73.2	91	70.4	0	1	292	0.00	29.934 
06:50	73.2	73.2	73.2	91	70.4	0	0	---	0.00	29.934 
06:55	73.2	73.2	73.2	92	70.7	0	1	292	0.00	29.934 
07:00	73.2	73.2	73.2	92	70.7	0	1	292	0.00	29.940 
07:05	73.2	73.2	73.2	92	70.7	0	1	292	0.00	29.940 
07:10	73.2	73.2	73.2	92	70.7	0	0	---	0.00	29.940 
07:15	73.2	73.2	73.2	92	70.7	0	0	---	0.00	29.950 
07:20	73.2	73.2	73.2	92	70.7	0	0	---	0.00	29.950 
07:25	73.2	73.2	73.2	93	71.0	0	1	292	0.00	29.950 
07:30	73.2	73.2	73.2	93	71.0	0	0	---	0.00	29.947 
07:35	73.2	73.2	73.2	93	71.0	0	0	---	0.00	29.947 
07:40	73.2	73.2	73.2	93	71.0	0	0	---	0.00	29.947 
07:45	73.2	73.2	73.2	93	71.0	0	0	---	0.00	29.951 
07:50	73.2	73.2	73.2	93	71.0	0	1	292	0.00	29.951 
07:55	73.2	73.2	73.2	93	71.0	0	1	292	0.00	29.951 
08:00	73.2	73.2	73.2	93	71.0	0	1	292	0.00	29.948 
08:05	73.3	73.3	73.3	94	71.5	0	2	292	0.01	29.948 
08:10	73.3	73.3	73.3	94	71.5	0	0	---	0.00	29.948 
08:15	73.3	73.3	73.3	94	71.5	0	0	---	0.00	29.928 
08:20	73.3	73.3	73.3	94	71.5	0	1	292	0.00	29.928 
08:25	73.3	73.3	73.3	94	71.5	0	0	---	0.00	29.928 
08:30	73.3	73.3	73.3	94	71.5	0	1	292	0.00	29.920 
08:35	73.3	73.3	73.3	94	71.5	0	1	292	0.00	29.920 
08:40	73.5	73.5	73.5	94	71.7	0	0	---	0.01	29.920 
08:45	73.5	73.5	73.5	94	71.7	0	0	---	0.01	29.937 
08:50	73.5	73.5	73.5	94	71.7	0	0	---	0.00	29.937 
08:55	73.3	73.3	73.3	94	71.5	0	0	---	0.00	29.937 
09:00	73.3	73.3	73.3	94	71.5	0	0	---	0.00	29.936 
09:05	73.3	73.3	73.3	94	71.5	0	0	---	0.01	29.936 
09:10	73.3	73.3	73.3	94	71.5	0	0	---	0.01	29.936 
09:15	73.3	73.3	73.3	94	71.5	0	0	---	0.01	29.922 
09:20	73.5	73.5	73.5	95	72.0	0	0	---	0.00	29.922 
09:25	73.7	73.7	73.7	95	72.2	0	0	---	0.00	29.922 
09:30	74.0	74.0	74.0	95	72.5	0	0	---	0.00	29.920 
09:35	74.2	74.2	74.2	95	72.7	0	1	292	0.00	29.920 
09:40	74.2	74.2	74.2	95	72.7	0	1	292	0.00	29.920 
09:45	74.4	74.4	74.4	95	72.9	0	2	292	0.00	29.924 
09:50	74.7	74.7	74.7	95	73.2	0	1	292	0.00	29.924 
09:55	74.9	74.9	74.9	95	73.4	0	1	292	0.00	29.924 
10:00	74.9	74.9	74.9	95	73.4	0	0	---	0.00	29.921 
10:05	75.1	75.1	73.6	94	73.2	0	1	292	0.00	29.921 
10:10	75.1	75.1	73.6	94	73.2	0	1	292	0.00	29.921 
10:15	75.3	75.3	74.0	94	73.4	0	1	292	0.01	29.938 
10:20	75.4	75.4	74.2	94	73.5	0	1	292	0.00	29.938 
10:25	75.6	75.6	74.7	94	73.7	0	1	292	0.00	29.938 
10:30	75.6	75.6	74.7	94	73.7	0	1	292	0.00	29.949 
10:35	75.4	75.4	74.2	94	73.5	0	1	292	0.00	29.949 
10:40	75.4	75.4	74.2	94	73.5	0	1	292	0.00	29.949 
10:45	75.6	75.6	74.7	94	73.7	0	1	292	0.00	29.960 
10:50	75.8	75.8	75.1	94	73.9	0	1	292	0.00	29.960 
10:55	75.8	75.8	75.1	94	73.9	0	1	292	0.00	29.960 
11:00	75.8	75.8	75.3	93	73.6	1	2	292	0.00	29.967 
11:05	75.8	75.8	75.3	93	73.6	0	2	292	0.00	29.967 
11:10	75.8	75.8	75.3	93	73.6	0	2	292	0.00	29.967 
11:15	75.8	75.8	75.3	93	73.6	1	3	292	0.00	29.977 
11:20	76.0	76.0	75.7	93	73.8	1	5	292	0.00	29.977 
11:25	76.3	76.3	76.4	93	74.1	1	3	292	0.00	29.977 
11:30	76.5	76.5	76.9	92	74.0	1	3	292	0.00	29.983 
11:35	76.7	76.7	77.4	92	74.2	1	3	292	0.00	29.983 
11:40	77.0	77.0	78.1	92	74.5	1	3	292	0.00	29.983 
11:45	77.0	77.0	78.1	91	74.2	2	4	292	0.00	29.993 
11:50	77.2	77.2	78.6	91	74.4	1	5	292	0.00	29.993 
11:55	77.2	77.2	78.6	90	74.0	2	5	270	0.00	29.993 
12:00	77.2	77.2	78.7	89	73.7	2	6	270	0.00	29.991 
12:05	77.2	77.2	78.7	89	73.7	2	4	292	0.00	29.991 
12:10	77.4	77.4	79.1	89	73.9	2	4	292	0.00	29.991 
12:15	77.6	77.6	79.6	88	73.8	3	6	248	0.00	29.993 
12:20	77.7	77.7	79.8	88	73.8	2	5	292	0.00	29.993 
12:25	77.7	77.7	79.8	88	73.8	2	5	270	0.00	29.993 
12:30	77.6	77.6	79.6	88	73.8	3	6	270	0.00	29.984 
12:35	77.4	77.4	79.1	88	73.6	3	7	270	0.00	29.984 
12:40	77.4	77.4	79.1	88	73.6	2	4	270	0.00	29.984 
12:45	77.2	77.2	78.7	88	73.4	1	4	292	0.00	29.979 
12:50	77.4	77.4	79.1	88	73.6	1	3	315	0.00	29.979 
12:55	77.9	77.9	80.2	88	74.0	1	4	315	0.00	29.979 
13:00	78.5	78.5	81.6	88	74.6	0	1	315	0.00	29.967 
13:05	79.2	79.2	83.2	87	75.0	1	3	315	0.00	29.967 
13:10	79.8	79.8	84.3	84	74.5	1	3	292	0.00	29.967 
13:15	80.5	80.5	85.6	82	74.5	1	3	292	0.00	29.964 
13:20	81.1	81.1	86.9	81	74.7	1	5	270	0.00	29.964 
13:25	81.1	81.1	86.7	80	74.3	1	3	270	0.00	29.964 
13:30	81.1	81.1	86.7	80	74.3	0	2	270	0.00	29.964 
13:35	80.9	80.9	86.0	79	73.8	0	3	270	0.00	29.964 
13:40	80.7	80.7	85.6	79	73.6	1	2	270	0.00	29.964 
13:45	80.5	80.5	85.1	79	73.4	1	3	270	0.00	29.964 
13:50	80.5	80.5	85.1	79	73.4	1	2	270	0.00	29.964 
13:55	80.5	80.5	85.1	79	73.4	1	2	270	0.00	29.964 
14:00	80.3	80.3	84.7	79	73.2	1	3	270	0.00	29.964 
14:05	80.3	80.3	84.9	80	73.5	0	1	270	0.00	29.964 
14:10	80.3	80.3	84.9	80	73.5	0	4	90	0.00	29.964 
14:15	80.3	80.3	84.9	80	73.5	0	2	90	0.00	29.951 
14:20	80.3	80.3	84.9	80	73.5	0	2	90	0.00	29.951 
14:25	80.5	80.5	85.1	79	73.4	0	1	90	0.00	29.951 
14:30	80.7	80.7	85.4	78	73.2	1	3	90	0.00	29.953 
14:35	80.7	80.7	85.4	78	73.2	0	1	90	0.00	29.953 
14:40	80.5	80.5	85.0	78	73.0	0	1	90	0.00	29.953 
14:45	80.5	80.5	84.8	77	72.6	0	1	90	0.00	29.941 
14:50	80.7	80.7	85.1	76	72.4	0	1	90	0.00	29.941 
14:55	80.7	80.7	85.2	77	72.8	0	0	---	0.00	29.941 
15:00	80.7	80.7	85.1	76	72.4	0	1	90	0.00	29.948 
15:05	80.5	80.5	85.0	78	73.0	0	0	---	0.00	29.948 
15:10	80.7	80.7	85.2	77	72.8	0	0	---	0.00	29.948 
15:15	80.9	80.9	85.8	78	73.4	0	2	90	0.00	29.946 
15:20	81.1	81.1	85.9	76	72.8	0	2	90	0.00	29.946 
15:25	81.6	81.6	86.9	76	73.3	0	0	---	0.00	29.946 
15:30	82.6	82.6	89.2	76	74.2	0	1	90	0.00	29.949 
15:35	82.8	82.8	88.0	70	72.0	0	2	90	0.00	29.949 
15:40	83.0	83.0	88.7	71	72.6	0	1	90	0.00	29.949 
15:45	83.0	83.0	88.7	71	72.6	0	1	90	0.00	29.949 
15:50	83.0	83.0	88.4	70	72.2	0	2	90	0.00	29.949 
15:55	83.0	83.0	88.4	70	72.2	0	2	90	0.00	29.949 
16:00	83.0	83.0	88.7	71	72.6	0	2	90	0.00	29.949 
16:05	83.2	83.2	88.5	69	71.9	1	4	90	0.00	29.949 
16:10	83.4	83.4	88.9	69	72.1	0	2	90	0.00	29.949 
16:15	83.6	83.6	89.6	70	72.8	0	3	90	0.00	29.957 
16:20	83.6	83.6	89.3	69	72.3	0	2	90	0.00	29.957 
16:25	83.6	83.6	89.0	68	71.9	0	2	90	0.00	29.957 
16:30	83.4	83.4	88.4	67	71.3	1	2	90	0.00	29.965 
16:35	83.4	83.4	88.6	68	71.7	0	1	90	0.00	29.965 
16:40	83.8	83.8	89.1	67	71.6	0	2	90	0.00	29.965 
16:45	84.1	84.1	89.4	66	71.5	1	3	90	0.00	29.956 
16:50	84.5	84.5	89.9	65	71.4	1	3	90	0.00	29.956 
16:55	84.7	84.7	90.0	64	71.1	1	3	90	0.00	29.956 
17:00	84.7	84.7	90.0	64	71.1	1	2	68	0.00	29.961 
17:05	84.9	84.9	90.0	63	70.9	0	3	90	0.00	29.961 
17:10	84.7	84.7	89.3	62	70.2	1	2	90	0.00	29.961 
17:15	84.3	84.3	88.9	63	70.3	0	1	90	0.00	29.960 
17:20	84.3	84.3	88.6	62	69.8	1	3	90	0.00	29.960 
17:25	84.3	84.3	88.9	63	70.3	1	2	315	0.00	29.960 
17:30	84.5	84.5	89.0	62	70.0	1	3	315	0.00	29.963 
17:35	84.5	84.5	89.0	62	70.0	1	3	315	0.00	29.963 
17:40	84.3	84.3	88.9	63	70.3	1	3	315	0.00	29.963 
17:45	84.1	84.1	88.8	64	70.6	0	2	315	0.00	29.962 
17:50	84.0	84.0	88.9	65	70.9	1	3	315	0.00	29.962 
17:55	83.8	83.8	89.4	68	72.1	1	3	315	0.00	29.962 
18:00	83.6	83.6	89.0	68	71.9	1	3	315	0.00	29.963 
18:05	83.2	83.2	88.5	69	71.9	1	3	315	0.00	29.963 
18:10	83.0	83.0	88.1	69	71.8	0	1	315	0.00	29.963 
18:15	83.0	83.0	88.4	70	72.2	1	3	315	0.00	29.969 
18:20	82.8	82.8	88.2	71	72.4	1	5	270	0.00	29.969 
18:25	82.8	82.8	88.2	71	72.4	1	3	270	0.00	29.969 
18:30	82.6	82.6	87.8	71	72.2	1	4	270	0.00	29.962 
18:35	82.4	82.4	87.7	72	72.4	1	3	270	0.00	29.962 
18:40	82.2	82.2	87.5	73	72.7	1	3	270	0.00	29.962 
18:45	82.0	82.0	87.1	73	72.5	1	3	270	0.00	29.962 
18:50	82.0	82.0	87.3	74	72.9	0	2	270	0.00	29.962 
18:55	82.0	82.0	87.3	74	72.9	1	3	270	0.00	29.962 
19:00	82.2	82.2	87.8	74	73.1	1	3	270	0.00	29.962 
19:05	82.4	82.4	87.9	73	72.9	0	3	315	0.00	29.962 
19:10	82.2	82.2	87.8	74	73.1	0	2	315	0.00	29.962 
19:15	82.2	82.2	87.8	74	73.1	1	2	315	0.00	29.957 
19:20	82.4	82.4	87.9	73	72.9	0	2	315	0.00	29.957 
19:25	82.4	82.4	88.2	74	73.3	1	2	315	0.00	29.957 
19:30	82.6	82.6	88.4	73	73.0	1	2	315	0.00	29.955 
19:35	82.6	82.6	88.6	74	73.4	0	2	315	0.00	29.955 
19:40	82.6	82.6	88.4	73	73.0	0	3	315	0.00	29.955 
19:45	82.4	82.4	87.9	73	72.9	0	1	315	0.00	29.953 
19:50	82.4	82.4	87.9	73	72.9	0	2	315	0.00	29.953 
19:55	82.2	82.2	87.5	73	72.7	0	1	315	0.00	29.953 
20:00	82.2	82.2	87.8	74	73.1	0	1	315	0.00	29.953 
20:05	82.0	82.0	87.3	74	72.9	0	2	315	0.00	29.953 
20:10	81.8	81.8	87.1	75	73.1	0	1	315	0.00	29.953 
20:15	81.6	81.6	86.7	75	72.9	0	1	315	0.00	29.956 
20:20	81.4	81.4	86.5	76	73.1	0	1	315	0.00	29.956 
20:25	81.2	81.2	86.3	77	73.3	0	1	315	0.00	29.956 
20:30	80.9	80.9	85.7	77	73.0	0	2	315	0.00	29.960 
20:35	80.7	80.7	85.4	78	73.2	0	1	315	0.00	29.960 
20:40	80.5	80.5	85.1	79	73.4	0	0	---	0.00	29.960 
20:45	80.3	80.3	84.7	79	73.2	0	1	315	0.00	29.972 
20:50	80.3	80.3	84.9	80	73.5	0	0	---	0.00	29.972 
20:55	80.1	80.1	84.4	80	73.4	0	0	---	0.00	29.972 
21:00	79.9	79.9	84.0	80	73.2	0	0	---	0.00	29.976 
21:05	79.8	79.8	83.9	81	73.4	0	1	315	0.00	29.976 
21:10	79.6	79.6	83.5	81	73.2	0	0	---	0.00	29.976 
21:15	79.4	79.4	83.2	82	73.4	0	0	---	0.00	29.976 
21:20	79.2	79.2	82.8	82	73.2	0	0	---	0.00	29.976 
21:25	79.2	79.2	82.9	83	73.6	0	0	---	0.00	29.976 
21:30	79.0	79.0	82.4	83	73.4	0	0	---	0.00	29.977 
21:35	78.8	78.8	82.1	84	73.5	0	0	---	0.00	29.977 
21:40	78.6	78.6	81.6	84	73.3	0	0	---	0.00	29.977 
21:45	78.5	78.5	81.5	85	73.6	0	1	315	0.00	29.982 
21:50	78.5	78.5	81.5	85	73.6	0	0	---	0.00	29.982 
21:55	78.3	78.3	81.0	85	73.4	0	0	---	0.00	29.982 
22:00	78.1	78.1	80.6	86	73.6	0	0	---	0.00	29.989 
22:05	78.1	78.1	80.6	86	73.6	0	0	---	0.00	29.989 
22:10	77.9	77.9	80.2	86	73.4	0	0	---	0.00	29.989 
22:15	77.7	77.7	79.8	87	73.5	0	0	---	0.00	29.989 
22:20	77.7	77.7	79.8	87	73.5	0	0	---	0.00	29.989 
22:25	77.6	77.6	79.6	87	73.4	0	0	---	0.00	29.989 
22:30	77.4	77.4	79.1	87	73.2	0	0	---	0.00	29.998 
22:35	77.2	77.2	78.7	87	73.0	0	0	---	0.00	29.998 
22:40	77.0	77.0	78.3	88	73.2	0	0	---	0.00	29.998 
22:45	76.8	76.8	77.9	88	73.0	0	0	---	0.00	30.001 
22:50	76.7	76.7	77.7	88	72.9	0	0	---	0.00	30.001 
22:55	76.5	76.5	77.2	89	73.0	0	0	---	0.00	30.001 
23:00	76.3	76.3	76.8	89	72.8	0	0	---	0.00	30.000 
23:05	76.3	76.3	76.7	90	73.1	0	0	---	0.00	30.000 
23:10	76.1	76.1	76.3	90	72.9	0	0	---	0.00	30.000 
23:15	76.1	76.1	76.1	91	73.3	0	0	---	0.00	30.005 
23:20	76.1	76.1	76.1	91	73.3	0	0	---	0.00	30.005 
23:25	76.1	76.1	76.1	91	73.3	0	0	---	0.00	30.005 
23:30	76.1	76.1	76.1	91	73.3	0	0	---	0.00	30.008 
23:35	76.1	76.1	76.1	91	73.3	0	0	---	0.00	30.008 
23:40	76.1	76.1	76.1	91	73.3	0	0	---	0.00	30.008 
23:45	76.1	76.1	76.1	91	73.3	0	0	---	0.00	30.011 
23:50	76.0	76.0	75.8	92	73.5	0	0	---	0.00	30.011 
23:55	75.8	75.8	75.4	92	73.3	0	0	---	0.00	30.011 

CoCoRaHS
IN-AL-39
A2 Web Hosting
Creative Commons License
GoDaddy
search engine by freefind advanced

loaded 2018-11-14 00:34:13 • last modified 2010-11-18 10:43:29
Privacy PolicyDisclaimer
• wx.awcolley.com is powered by PmWiki v.2002016 •
• all content (unless otherwise noted) © 2018 A W Colley